logo
Rechercher aéroport 
image banner adimage banner adimage banner ad
image banner ad

LODA - Leoben Lkh

Situé à District Leoben, Austria

ICAO - , IATA -

Données fournies par Airmate  

Information générale

Coordonnées: N47°22'50" E15°5'5"
Élévation : 1910 feet MSL.
 
Voir autres Aéroports à Styria

Données opérationnelles

Special qualification required
Heure actuelle UTC:
Heure actuelle locale:
Météo à : LOXZ - Zeltweg ( 32 km )
METAR: LOXZ 251550Z 07007KT 9999 FEW060 SCT300 24/10 Q1014
TAF: TAF LOXZ 251115Z 2512/2521 VRB03KT 9999 FEW060 SCT070 TEMPO 2512/2518 06008KT
Voir NOTAMs / SUP AIP / TFR affectant cet aéroport [VIEW]
Fréquences de communication: [VIEW]

Pistes:

Coordonnées de l'aéroport

Adresse: District Leoben Austria

Vue satellite de LODA